Airfield :
LOGIN :

Register | Disclaimer

   EN    FR    IT 

 










Legend :    VFR   Marginal VFR   IFR   Intensive IFR   Very Intensive IFR
Visi :
Ceiling :
>= 8 km
>= 3000ft
5 to 8 km
1000 to 3000 ft
1500m to 5 km
500 to 1000 ft
800 to 1500m
200 to 500 ft
< 800m
< 200 ft
Symbols :   Thunderstorms  Fog  Heavy snow  Heavy precipitations  Wind > 20 kt
SIGMETs :     Misc.  Thunderstorms  Icing  Turbulence  Mountain Waves  Volcanic Ashes







- Airport Elevation : 257 ft
- IATA code : MAN
- Download approach charts


EGCC - Manchester

CURRENT METAR :
  • 281620Z 21006KT 170V230 6000 RA FEW009 BKN014TCU 16/15 Q1003 TEMPO NSW SCT014

EXPIRED METARs :
  • 281550Z 21007KT 6000 -RA FEW025TCU SCT034 BKN041 16/15 Q1003 RERA TEMPO 4000 RA BKN012
  • 281520Z 21010KT 180V240 6000 RA SCT019TCU BKN048 16/14 Q1003 RESHRA TEMPO 4000 BKN012
  • 281450Z 21012KT 9999 8000NE SHRA BKN013TCU 17/15 Q1003 RESHRA TEMPO NSW BKN008
  • 281420Z 21006KT 9999 -SHRA BKN011 17/15 Q1003 TEMPO RA BKN008
  • 281350Z 20007KT 150V240 9999 -SHRA BKN011 16/15 Q1003 TEMPO BKN008

TAF TAF EGCC
Valid from the 28 at 06:00 until the 29 at 12:00 UTC


280500Z 2806/2912 21009KT 9999 SCT030
PROB30
TEMPO 2809/2823 21015G25KT
TEMPO 2813/2823 8000 RA BKN012
PROB30
TEMPO 2815/2823 4000 +RA BKN008
BECMG 2822/2824 27010KT
BECMG 2900/2903 21007KT
ATIS : +44 161 499 2324
No reported NOTAMs for that airfield.



MET'MAP, your aeronautical weather chart ! - Copyright ORBIFLY December 2007 - Disclaimer

ORBIFLY MET'MAP TEAM :

Programming & Development : Alexandra Zaïnal
Concept & Development : Baudouin d'Aumeries
Co-Development & Prog : Marc-Olivier Méhu
Technical & hardware support : Manuel Goepfert

Contact : metmap@orbifly.com




SOURCES & CREDITS :

   NOAA